sensor_id;sensor_type;location;lat;lon;timestamp;temperature;humidity
7958;DHT22;4024;52.172;5.378;2023-06-19T00:01:46;25.40;96.70
7958;DHT22;4024;52.172;5.378;2023-06-19T00:04:12;25.50;96.70
7958;DHT22;4024;52.172;5.378;2023-06-19T00:06:37;25.50;96.80
7958;DHT22;4024;52.172;5.378;2023-06-19T00:09:03;25.40;96.80
7958;DHT22;4024;52.172;5.378;2023-06-19T00:11:29;25.40;96.90
7958;DHT22;4024;52.172;5.378;2023-06-19T00:13:55;25.40;96.90
7958;DHT22;4024;52.172;5.378;2023-06-19T00:16:21;25.40;97.10
7958;DHT22;4024;52.172;5.378;2023-06-19T00:18:46;25.40;97.40
7958;DHT22;4024;52.172;5.378;2023-06-19T00:21:12;25.40;97.40
7958;DHT22;4024;52.172;5.378;2023-06-19T00:23:37;25.40;97.60
7958;DHT22;4024;52.172;5.378;2023-06-19T00:26:03;25.40;97.70
7958;DHT22;4024;52.172;5.378;2023-06-19T00:28:30;25.40;97.90
7958;DHT22;4024;52.172;5.378;2023-06-19T00:30:56;25.40;98.10
7958;DHT22;4024;52.172;5.378;2023-06-19T00:33:22;25.40;98.60
7958;DHT22;4024;52.172;5.378;2023-06-19T00:35:50;25.40;98.80
7958;DHT22;4024;52.172;5.378;2023-06-19T00:38:16;25.40;99.30
7958;DHT22;4024;52.172;5.378;2023-06-19T00:40:41;25.30;99.50
7958;DHT22;4024;52.172;5.378;2023-06-19T00:43:07;25.30;99.90
7958;DHT22;4024;52.172;5.378;2023-06-19T00:45:33;25.30;99.90
7958;DHT22;4024;52.172;5.378;2023-06-19T00:47:59;25.30;99.90
7958;DHT22;4024;52.172;5.378;2023-06-19T00:50:25;25.30;99.90
7958;DHT22;4024;52.172;5.378;2023-06-19T00:52:52;25.30;99.90
7958;DHT22;4024;52.172;5.378;2023-06-19T00:55:18;25.20;99.90
7958;DHT22;4024;52.172;5.378;2023-06-19T00:57:44;25.20;99.90
7958;DHT22;4024;52.172;5.378;2023-06-19T01:00:10;25.20;99.90
7958;DHT22;4024;52.172;5.378;2023-06-19T01:02:39;25.10;99.90
7958;DHT22;4024;52.172;5.378;2023-06-19T01:05:05;25.10;99.90
7958;DHT22;4024;52.172;5.378;2023-06-19T01:10:38;25.10;99.90
7958;DHT22;4024;52.172;5.378;2023-06-19T01:13:10;25.00;99.90
7958;DHT22;4024;52.172;5.378;2023-06-19T01:15:39;25.00;99.90
7958;DHT22;4024;52.172;5.378;2023-06-19T01:18:07;25.00;99.90
7958;DHT22;4024;52.172;5.378;2023-06-19T01:20:33;24.90;99.90
7958;DHT22;4024;52.172;5.378;2023-06-19T01:23:08;24.90;99.90
7958;DHT22;4024;52.172;5.378;2023-06-19T01:25:34;24.80;99.90
7958;DHT22;4024;52.172;5.378;2023-06-19T01:27:59;24.80;99.90
7958;DHT22;4024;52.172;5.378;2023-06-19T01:30:25;24.70;99.90
7958;DHT22;4024;52.172;5.378;2023-06-19T01:32:58;24.70;99.90
7958;DHT22;4024;52.172;5.378;2023-06-19T01:35:28;24.60;99.90
7958;DHT22;4024;52.172;5.378;2023-06-19T01:37:54;24.60;99.90
7958;DHT22;4024;52.172;5.378;2023-06-19T01:40:23;24.50;99.90
7958;DHT22;4024;52.172;5.378;2023-06-19T01:42:54;24.50;99.90
7958;DHT22;4024;52.172;5.378;2023-06-19T01:45:20;24.40;99.90
7958;DHT22;4024;52.172;5.378;2023-06-19T01:47:46;24.40;99.90
7958;DHT22;4024;52.172;5.378;2023-06-19T01:50:11;24.30;99.90
7958;DHT22;4024;52.172;5.378;2023-06-19T01:52:38;24.20;99.90
7958;DHT22;4024;52.172;5.378;2023-06-19T01:55:04;24.10;99.90
7958;DHT22;4024;52.172;5.378;2023-06-19T01:57:30;24.10;99.90
7958;DHT22;4024;52.172;5.378;2023-06-19T01:59:56;24.10;99.90
7958;DHT22;4024;52.172;5.378;2023-06-19T02:02:28;24.00;99.90
7958;DHT22;4024;52.172;5.378;2023-06-19T02:04:54;24.00;99.90
7958;DHT22;4024;52.172;5.378;2023-06-19T02:07:21;24.00;99.90
7958;DHT22;4024;52.172;5.378;2023-06-19T02:09:46;24.00;99.90
7958;DHT22;4024;52.172;5.378;2023-06-19T02:12:12;24.00;99.90
7958;DHT22;4024;52.172;5.378;2023-06-19T02:14:37;23.90;99.90
7958;DHT22;4024;52.172;5.378;2023-06-19T02:17:03;23.90;99.90
7958;DHT22;4024;52.172;5.378;2023-06-19T02:19:28;23.90;99.90
7958;DHT22;4024;52.172;5.378;2023-06-19T02:21:54;23.90;99.90
7958;DHT22;4024;52.172;5.378;2023-06-19T02:24:20;23.90;99.90
7958;DHT22;4024;52.172;5.378;2023-06-19T02:26:45;23.90;99.90
7958;DHT22;4024;52.172;5.378;2023-06-19T02:29:11;23.90;99.90
7958;DHT22;4024;52.172;5.378;2023-06-19T02:31:36;23.90;99.90
7958;DHT22;4024;52.172;5.378;2023-06-19T02:34:02;23.90;99.90
7958;DHT22;4024;52.172;5.378;2023-06-19T02:36:27;23.90;99.90
7958;DHT22;4024;52.172;5.378;2023-06-19T02:38:53;23.90;99.90
7958;DHT22;4024;52.172;5.378;2023-06-19T02:41:19;24.00;99.90
7958;DHT22;4024;52.172;5.378;2023-06-19T02:43:45;23.90;99.90
7958;DHT22;4024;52.172;5.378;2023-06-19T02:46:15;23.80;99.90
7958;DHT22;4024;52.172;5.378;2023-06-19T02:48:40;23.80;99.90
7958;DHT22;4024;52.172;5.378;2023-06-19T02:51:06;23.80;99.90
7958;DHT22;4024;52.172;5.378;2023-06-19T02:53:32;23.80;99.90
7958;DHT22;4024;52.172;5.378;2023-06-19T02:55:57;23.80;99.90
7958;DHT22;4024;52.172;5.378;2023-06-19T02:58:23;23.80;99.90
7958;DHT22;4024;52.172;5.378;2023-06-19T03:00:49;23.80;99.90
7958;DHT22;4024;52.172;5.378;2023-06-19T03:03:14;23.70;99.90
7958;DHT22;4024;52.172;5.378;2023-06-19T03:05:40;23.70;99.90
7958;DHT22;4024;52.172;5.378;2023-06-19T03:08:06;23.70;99.90
7958;DHT22;4024;52.172;5.378;2023-06-19T03:10:32;23.70;99.90
7958;DHT22;4024;52.172;5.378;2023-06-19T03:12:58;23.80;99.90
7958;DHT22;4024;52.172;5.378;2023-06-19T03:15:24;23.70;99.90
7958;DHT22;4024;52.172;5.378;2023-06-19T03:17:52;23.60;99.90
7958;DHT22;4024;52.172;5.378;2023-06-19T03:20:18;23.70;99.90
7958;DHT22;4024;52.172;5.378;2023-06-19T03:22:43;23.70;99.90
7958;DHT22;4024;52.172;5.378;2023-06-19T03:25:10;23.70;99.90
7958;DHT22;4024;52.172;5.378;2023-06-19T03:27:36;23.70;99.90
7958;DHT22;4024;52.172;5.378;2023-06-19T03:30:03;23.60;99.90
7958;DHT22;4024;52.172;5.378;2023-06-19T03:32:34;23.60;99.90
7958;DHT22;4024;52.172;5.378;2023-06-19T03:35:02;23.60;99.90
7958;DHT22;4024;52.172;5.378;2023-06-19T03:37:27;23.60;99.90
7958;DHT22;4024;52.172;5.378;2023-06-19T03:39:53;23.70;99.90
7958;DHT22;4024;52.172;5.378;2023-06-19T03:42:19;23.60;99.90
7958;DHT22;4024;52.172;5.378;2023-06-19T03:44:44;23.60;99.90
7958;DHT22;4024;52.172;5.378;2023-06-19T03:47:11;23.50;99.90
7958;DHT22;4024;52.172;5.378;2023-06-19T03:49:36;23.50;99.90
7958;DHT22;4024;52.172;5.378;2023-06-19T03:52:02;23.50;99.90
7958;DHT22;4024;52.172;5.378;2023-06-19T03:54:29;23.50;99.90
7958;DHT22;4024;52.172;5.378;2023-06-19T03:56:54;23.50;99.90
7958;DHT22;4024;52.172;5.378;2023-06-19T03:59:20;23.50;99.90
7958;DHT22;4024;52.172;5.378;2023-06-19T04:01:45;23.50;99.90
7958;DHT22;4024;52.172;5.378;2023-06-19T04:04:11;23.40;99.90
7958;DHT22;4024;52.172;5.378;2023-06-19T04:06:36;23.40;99.90
7958;DHT22;4024;52.172;5.378;2023-06-19T04:09:03;23.30;99.90
7958;DHT22;4024;52.172;5.378;2023-06-19T04:11:30;23.30;99.90
7958;DHT22;4024;52.172;5.378;2023-06-19T04:13:55;23.30;99.90
7958;DHT22;4024;52.172;5.378;2023-06-19T04:16:21;23.30;99.90
7958;DHT22;4024;52.172;5.378;2023-06-19T04:18:46;23.30;99.90
7958;DHT22;4024;52.172;5.378;2023-06-19T04:21:12;23.30;99.90
7958;DHT22;4024;52.172;5.378;2023-06-19T04:23:37;23.30;99.90
7958;DHT22;4024;52.172;5.378;2023-06-19T04:26:03;23.30;99.90
7958;DHT22;4024;52.172;5.378;2023-06-19T04:28:29;23.20;99.90
7958;DHT22;4024;52.172;5.378;2023-06-19T04:30:54;23.20;99.90
7958;DHT22;4024;52.172;5.378;2023-06-19T04:33:29;23.20;99.90
7958;DHT22;4024;52.172;5.378;2023-06-19T04:35:56;23.20;99.90
7958;DHT22;4024;52.172;5.378;2023-06-19T04:38:23;23.10;99.90
7958;DHT22;4024;52.172;5.378;2023-06-19T04:40:49;23.20;99.90
7958;DHT22;4024;52.172;5.378;2023-06-19T04:43:15;23.20;99.90
7958;DHT22;4024;52.172;5.378;2023-06-19T04:45:41;23.20;99.90
7958;DHT22;4024;52.172;5.378;2023-06-19T04:48:06;23.20;99.90
7958;DHT22;4024;52.172;5.378;2023-06-19T04:50:32;23.20;99.90
7958;DHT22;4024;52.172;5.378;2023-06-19T04:52:57;23.20;99.90
7958;DHT22;4024;52.172;5.378;2023-06-19T04:55:23;23.20;99.90
7958;DHT22;4024;52.172;5.378;2023-06-19T04:57:50;23.20;99.90
7958;DHT22;4024;52.172;5.378;2023-06-19T05:00:17;23.20;99.90
7958;DHT22;4024;52.172;5.378;2023-06-19T05:02:45;23.10;99.90
7958;DHT22;4024;52.172;5.378;2023-06-19T05:05:13;23.00;99.90
7958;DHT22;4024;52.172;5.378;2023-06-19T05:07:39;23.10;99.90
7958;DHT22;4024;52.172;5.378;2023-06-19T05:10:05;23.10;99.90
7958;DHT22;4024;52.172;5.378;2023-06-19T05:12:31;23.00;99.90
7958;DHT22;4024;52.172;5.378;2023-06-19T05:14:57;23.10;99.90
7958;DHT22;4024;52.172;5.378;2023-06-19T05:17:22;23.10;99.90
7958;DHT22;4024;52.172;5.378;2023-06-19T05:19:48;23.10;99.90
7958;DHT22;4024;52.172;5.378;2023-06-19T05:22:14;23.10;99.90
7958;DHT22;4024;52.172;5.378;2023-06-19T05:24:39;23.10;99.90
7958;DHT22;4024;52.172;5.378;2023-06-19T05:27:05;23.10;99.90
7958;DHT22;4024;52.172;5.378;2023-06-19T05:29:32;23.10;99.90
7958;DHT22;4024;52.172;5.378;2023-06-19T05:31:57;23.10;99.90
7958;DHT22;4024;52.172;5.378;2023-06-19T05:34:23;23.20;99.90
7958;DHT22;4024;52.172;5.378;2023-06-19T05:36:48;23.20;99.90
7958;DHT22;4024;52.172;5.378;2023-06-19T05:39:14;23.20;99.90
7958;DHT22;4024;52.172;5.378;2023-06-19T05:41:40;23.20;99.90
7958;DHT22;4024;52.172;5.378;2023-06-19T05:44:06;23.30;99.90
7958;DHT22;4024;52.172;5.378;2023-06-19T05:46:32;23.30;99.90
7958;DHT22;4024;52.172;5.378;2023-06-19T05:48:57;23.30;99.90
7958;DHT22;4024;52.172;5.378;2023-06-19T05:51:23;23.30;99.90
7958;DHT22;4024;52.172;5.378;2023-06-19T05:53:49;23.30;99.90
7958;DHT22;4024;52.172;5.378;2023-06-19T05:56:15;23.30;99.90
7958;DHT22;4024;52.172;5.378;2023-06-19T05:58:41;23.30;99.90
7958;DHT22;4024;52.172;5.378;2023-06-19T06:01:06;23.30;99.90
7958;DHT22;4024;52.172;5.378;2023-06-19T06:03:33;23.20;99.90
7958;DHT22;4024;52.172;5.378;2023-06-19T06:05:58;23.30;99.90
7958;DHT22;4024;52.172;5.378;2023-06-19T06:08:29;23.20;99.90
7958;DHT22;4024;52.172;5.378;2023-06-19T06:10:55;23.20;99.90
7958;DHT22;4024;52.172;5.378;2023-06-19T06:13:20;23.10;99.90
7958;DHT22;4024;52.172;5.378;2023-06-19T06:15:46;23.10;99.90
7958;DHT22;4024;52.172;5.378;2023-06-19T06:18:11;23.10;99.90
7958;DHT22;4024;52.172;5.378;2023-06-19T06:20:37;23.20;99.90
7958;DHT22;4024;52.172;5.378;2023-06-19T06:23:02;23.10;99.90
7958;DHT22;4024;52.172;5.378;2023-06-19T06:25:28;23.30;99.90
7958;DHT22;4024;52.172;5.378;2023-06-19T06:27:54;23.40;99.90
7958;DHT22;4024;52.172;5.378;2023-06-19T06:30:19;23.60;99.90
7958;DHT22;4024;52.172;5.378;2023-06-19T06:32:45;23.80;99.90
7958;DHT22;4024;52.172;5.378;2023-06-19T06:35:11;24.20;99.90
7958;DHT22;4024;52.172;5.378;2023-06-19T06:37:36;24.40;99.90
7958;DHT22;4024;52.172;5.378;2023-06-19T06:40:02;24.50;99.90
7958;DHT22;4024;52.172;5.378;2023-06-19T06:42:30;24.60;99.90
7958;DHT22;4024;52.172;5.378;2023-06-19T06:44:56;24.70;99.90
7958;DHT22;4024;52.172;5.378;2023-06-19T06:47:21;24.60;99.90
7958;DHT22;4024;52.172;5.378;2023-06-19T06:49:47;24.60;99.90
7958;DHT22;4024;52.172;5.378;2023-06-19T06:52:12;24.60;99.90
7958;DHT22;4024;52.172;5.378;2023-06-19T06:54:38;24.50;99.90
7958;DHT22;4024;52.172;5.378;2023-06-19T06:57:04;24.40;99.90
7958;DHT22;4024;52.172;5.378;2023-06-19T06:59:30;24.30;99.90
7958;DHT22;4024;52.172;5.378;2023-06-19T07:01:56;24.30;99.90
7958;DHT22;4024;52.172;5.378;2023-06-19T07:04:22;24.20;99.90
7958;DHT22;4024;52.172;5.378;2023-06-19T07:06:48;24.20;99.90
7958;DHT22;4024;52.172;5.378;2023-06-19T07:09:14;24.20;99.90
7958;DHT22;4024;52.172;5.378;2023-06-19T07:11:40;24.10;99.90
7958;DHT22;4024;52.172;5.378;2023-06-19T07:14:06;24.00;99.90
7958;DHT22;4024;52.172;5.378;2023-06-19T07:16:31;23.90;99.90
7958;DHT22;4024;52.172;5.378;2023-06-19T07:18:57;24.00;99.90
7958;DHT22;4024;52.172;5.378;2023-06-19T07:21:22;23.90;99.90
7958;DHT22;4024;52.172;5.378;2023-06-19T07:23:48;23.90;99.90
7958;DHT22;4024;52.172;5.378;2023-06-19T07:26:14;23.90;99.90
7958;DHT22;4024;52.172;5.378;2023-06-19T07:28:41;23.80;99.90
7958;DHT22;4024;52.172;5.378;2023-06-19T07:31:06;23.80;99.90
7958;DHT22;4024;52.172;5.378;2023-06-19T07:33:32;23.80;99.90
7958;DHT22;4024;52.172;5.378;2023-06-19T07:35:59;23.80;99.90
7958;DHT22;4024;52.172;5.378;2023-06-19T07:38:25;23.80;99.90
7958;DHT22;4024;52.172;5.378;2023-06-19T07:40:50;23.80;99.90
7958;DHT22;4024;52.172;5.378;2023-06-19T07:43:16;23.80;99.90
7958;DHT22;4024;52.172;5.378;2023-06-19T07:45:42;24.00;99.90
7958;DHT22;4024;52.172;5.378;2023-06-19T07:48:08;24.00;99.90
7958;DHT22;4024;52.172;5.378;2023-06-19T07:50:34;24.10;99.90
7958;DHT22;4024;52.172;5.378;2023-06-19T07:52:59;24.10;99.90
7958;DHT22;4024;52.172;5.378;2023-06-19T07:55:25;24.20;99.90
7958;DHT22;4024;52.172;5.378;2023-06-19T07:57:50;24.30;99.90
7958;DHT22;4024;52.172;5.378;2023-06-19T08:00:17;24.30;99.90
7958;DHT22;4024;52.172;5.378;2023-06-19T08:02:43;24.40;99.90
7958;DHT22;4024;52.172;5.378;2023-06-19T08:05:09;24.40;99.90
7958;DHT22;4024;52.172;5.378;2023-06-19T08:07:36;24.60;99.90
7958;DHT22;4024;52.172;5.378;2023-06-19T08:10:02;24.60;99.90
7958;DHT22;4024;52.172;5.378;2023-06-19T08:12:29;24.60;99.90
7958;DHT22;4024;52.172;5.378;2023-06-19T08:14:55;24.70;99.90
7958;DHT22;4024;52.172;5.378;2023-06-19T08:17:20;24.80;99.90
7958;DHT22;4024;52.172;5.378;2023-06-19T08:19:46;25.00;99.90
7958;DHT22;4024;52.172;5.378;2023-06-19T08:22:12;25.10;99.90
7958;DHT22;4024;52.172;5.378;2023-06-19T08:24:37;25.20;99.90
7958;DHT22;4024;52.172;5.378;2023-06-19T08:27:05;25.30;99.90
7958;DHT22;4024;52.172;5.378;2023-06-19T08:29:30;25.30;99.90
7958;DHT22;4024;52.172;5.378;2023-06-19T08:31:56;25.40;99.90
7958;DHT22;4024;52.172;5.378;2023-06-19T08:34:22;25.40;99.90
7958;DHT22;4024;52.172;5.378;2023-06-19T08:36:48;25.40;99.90
7958;DHT22;4024;52.172;5.378;2023-06-19T08:39:13;25.50;99.90
7958;DHT22;4024;52.172;5.378;2023-06-19T08:41:39;25.50;99.90
7958;DHT22;4024;52.172;5.378;2023-06-19T08:44:07;25.50;99.90
7958;DHT22;4024;52.172;5.378;2023-06-19T08:46:33;25.50;99.90
7958;DHT22;4024;52.172;5.378;2023-06-19T08:49:00;25.50;99.90
7958;DHT22;4024;52.172;5.378;2023-06-19T08:51:27;25.60;99.90
7958;DHT22;4024;52.172;5.378;2023-06-19T08:53:56;25.70;99.90
7958;DHT22;4024;52.172;5.378;2023-06-19T08:56:22;25.70;99.90
7958;DHT22;4024;52.172;5.378;2023-06-19T08:58:48;25.70;99.90
7958;DHT22;4024;52.172;5.378;2023-06-19T09:01:17;25.80;99.90
7958;DHT22;4024;52.172;5.378;2023-06-19T09:03:43;25.80;99.90
7958;DHT22;4024;52.172;5.378;2023-06-19T09:06:14;25.80;99.90
7958;DHT22;4024;52.172;5.378;2023-06-19T09:08:41;25.80;99.90
7958;DHT22;4024;52.172;5.378;2023-06-19T09:11:07;25.90;99.90
7958;DHT22;4024;52.172;5.378;2023-06-19T09:13:33;26.00;99.90
7958;DHT22;4024;52.172;5.378;2023-06-19T09:18:25;26.10;99.90
7958;DHT22;4024;52.172;5.378;2023-06-19T09:20:53;26.20;99.90
7958;DHT22;4024;52.172;5.378;2023-06-19T09:23:19;26.30;99.90
7958;DHT22;4024;52.172;5.378;2023-06-19T09:25:49;26.40;99.90
7958;DHT22;4024;52.172;5.378;2023-06-19T09:28:26;26.60;99.90
7958;DHT22;4024;52.172;5.378;2023-06-19T09:31:02;26.70;99.90
7958;DHT22;4024;52.172;5.378;2023-06-19T09:33:30;26.70;99.90
7958;DHT22;4024;52.172;5.378;2023-06-19T09:35:57;26.70;99.90
7958;DHT22;4024;52.172;5.378;2023-06-19T09:38:28;26.70;99.90
7958;DHT22;4024;52.172;5.378;2023-06-19T09:40:55;26.70;99.90
7958;DHT22;4024;52.172;5.378;2023-06-19T09:43:34;26.60;99.90
7958;DHT22;4024;52.172;5.378;2023-06-19T09:46:02;26.50;99.90
7958;DHT22;4024;52.172;5.378;2023-06-19T09:48:31;26.40;99.90
7958;DHT22;4024;52.172;5.378;2023-06-19T09:53:47;26.40;99.90
7958;DHT22;4024;52.172;5.378;2023-06-19T09:56:13;26.40;99.90
7958;DHT22;4024;52.172;5.378;2023-06-19T09:58:40;26.40;99.90
7958;DHT22;4024;52.172;5.378;2023-06-19T10:01:07;26.40;99.90
7958;DHT22;4024;52.172;5.378;2023-06-19T10:03:35;26.40;99.90
7958;DHT22;4024;52.172;5.378;2023-06-19T10:06:02;26.40;99.90
7958;DHT22;4024;52.172;5.378;2023-06-19T10:08:39;26.50;99.90
7958;DHT22;4024;52.172;5.378;2023-06-19T10:11:05;26.50;99.90
7958;DHT22;4024;52.172;5.378;2023-06-19T10:13:35;26.50;99.90
7958;DHT22;4024;52.172;5.378;2023-06-19T10:16:02;26.50;99.90
7958;DHT22;4024;52.172;5.378;2023-06-19T10:18:28;26.50;99.90
7958;DHT22;4024;52.172;5.378;2023-06-19T10:20:55;26.60;99.90
7958;DHT22;4024;52.172;5.378;2023-06-19T10:23:25;26.70;99.90
7958;DHT22;4024;52.172;5.378;2023-06-19T10:25:55;26.80;99.90
7958;DHT22;4024;52.172;5.378;2023-06-19T10:28:23;26.80;99.90
7958;DHT22;4024;52.172;5.378;2023-06-19T10:31:04;26.80;99.90
7958;DHT22;4024;52.172;5.378;2023-06-19T10:33:32;26.90;99.90
7958;DHT22;4024;52.172;5.378;2023-06-19T10:35:59;26.90;99.90
7958;DHT22;4024;52.172;5.378;2023-06-19T10:38:28;27.00;99.90
7958;DHT22;4024;52.172;5.378;2023-06-19T10:40:53;27.10;99.90
7958;DHT22;4024;52.172;5.378;2023-06-19T10:43:23;27.10;99.90
7958;DHT22;4024;52.172;5.378;2023-06-19T10:45:51;27.10;99.90
7958;DHT22;4024;52.172;5.378;2023-06-19T10:48:20;27.20;99.90
7958;DHT22;4024;52.172;5.378;2023-06-19T10:50:47;27.30;99.90
7958;DHT22;4024;52.172;5.378;2023-06-19T10:53:41;27.30;99.90
7958;DHT22;4024;52.172;5.378;2023-06-19T10:56:06;27.40;99.90
7958;DHT22;4024;52.172;5.378;2023-06-19T10:58:32;27.40;99.90
7958;DHT22;4024;52.172;5.378;2023-06-19T11:00:58;27.40;99.90
7958;DHT22;4024;52.172;5.378;2023-06-19T11:03:23;27.40;99.90
7958;DHT22;4024;52.172;5.378;2023-06-19T11:05:49;27.50;99.90
7958;DHT22;4024;52.172;5.378;2023-06-19T11:08:34;27.50;99.90
7958;DHT22;4024;52.172;5.378;2023-06-19T11:10:59;27.50;99.90
7958;DHT22;4024;52.172;5.378;2023-06-19T11:13:25;27.60;99.90
7958;DHT22;4024;52.172;5.378;2023-06-19T11:15:50;27.70;99.90
7958;DHT22;4024;52.172;5.378;2023-06-19T11:18:17;27.80;99.90
7958;DHT22;4024;52.172;5.378;2023-06-19T11:20:49;27.80;99.90
7958;DHT22;4024;52.172;5.378;2023-06-19T11:23:16;27.80;99.90
7958;DHT22;4024;52.172;5.378;2023-06-19T11:25:43;27.80;99.90
7958;DHT22;4024;52.172;5.378;2023-06-19T11:28:13;27.80;99.90
7958;DHT22;4024;52.172;5.378;2023-06-19T11:30:39;27.80;99.90
7958;DHT22;4024;52.172;5.378;2023-06-19T11:33:21;27.90;99.90
7958;DHT22;4024;52.172;5.378;2023-06-19T11:35:52;27.90;99.90
7958;DHT22;4024;52.172;5.378;2023-06-19T11:38:23;28.00;99.90
7958;DHT22;4024;52.172;5.378;2023-06-19T11:40:50;28.00;99.90
7958;DHT22;4024;52.172;5.378;2023-06-19T11:45:50;28.10;99.90
7958;DHT22;4024;52.172;5.378;2023-06-19T11:48:25;28.20;99.90
7958;DHT22;4024;52.172;5.378;2023-06-19T11:50:51;28.20;99.90
7958;DHT22;4024;52.172;5.378;2023-06-19T11:53:21;28.20;99.90
7958;DHT22;4024;52.172;5.378;2023-06-19T11:55:47;28.20;99.90
7958;DHT22;4024;52.172;5.378;2023-06-19T11:58:14;28.30;99.90
7958;DHT22;4024;52.172;5.378;2023-06-19T12:00:45;28.40;99.90
7958;DHT22;4024;52.172;5.378;2023-06-19T12:03:10;28.40;99.90
7958;DHT22;4024;52.172;5.378;2023-06-19T12:05:37;28.50;99.90
7958;DHT22;4024;52.172;5.378;2023-06-19T12:08:03;28.50;99.90
7958;DHT22;4024;52.172;5.378;2023-06-19T12:10:30;28.60;99.90
7958;DHT22;4024;52.172;5.378;2023-06-19T12:12:55;28.60;99.90
7958;DHT22;4024;52.172;5.378;2023-06-19T12:15:21;28.60;99.90
7958;DHT22;4024;52.172;5.378;2023-06-19T12:17:47;28.60;99.60
7958;DHT22;4024;52.172;5.378;2023-06-19T12:20:13;28.70;99.90
7958;DHT22;4024;52.172;5.378;2023-06-19T12:22:39;28.70;99.90
7958;DHT22;4024;52.172;5.378;2023-06-19T12:25:05;28.70;99.90
7958;DHT22;4024;52.172;5.378;2023-06-19T12:27:31;28.80;99.90
7958;DHT22;4024;52.172;5.378;2023-06-19T12:29:57;28.80;99.90
7958;DHT22;4024;52.172;5.378;2023-06-19T12:32:23;28.90;99.70
7958;DHT22;4024;52.172;5.378;2023-06-19T12:34:49;28.90;99.90
7958;DHT22;4024;52.172;5.378;2023-06-19T12:37:16;28.90;99.90
7958;DHT22;4024;52.172;5.378;2023-06-19T12:39:44;29.00;99.90
7958;DHT22;4024;52.172;5.378;2023-06-19T12:42:10;29.00;98.50
7958;DHT22;4024;52.172;5.378;2023-06-19T12:44:39;29.10;98.50
7958;DHT22;4024;52.172;5.378;2023-06-19T12:47:05;29.20;97.30
7958;DHT22;4024;52.172;5.378;2023-06-19T12:49:31;29.20;97.00
7958;DHT22;4024;52.172;5.378;2023-06-19T12:51:57;29.20;97.70
7958;DHT22;4024;52.172;5.378;2023-06-19T12:54:23;29.30;97.90
7958;DHT22;4024;52.172;5.378;2023-06-19T12:56:49;29.40;97.30
7958;DHT22;4024;52.172;5.378;2023-06-19T12:59:15;29.40;97.30
7958;DHT22;4024;52.172;5.378;2023-06-19T13:01:41;29.50;97.00
7958;DHT22;4024;52.172;5.378;2023-06-19T13:04:07;29.50;96.90
7958;DHT22;4024;52.172;5.378;2023-06-19T13:06:33;29.50;96.20
7958;DHT22;4024;52.172;5.378;2023-06-19T13:08:58;29.50;96.50
7958;DHT22;4024;52.172;5.378;2023-06-19T13:11:24;29.50;97.10
7958;DHT22;4024;52.172;5.378;2023-06-19T13:13:50;29.40;96.80
7958;DHT22;4024;52.172;5.378;2023-06-19T13:16:15;29.40;97.70
7958;DHT22;4024;52.172;5.378;2023-06-19T13:18:44;29.40;97.00
7958;DHT22;4024;52.172;5.378;2023-06-19T13:21:10;29.40;96.60
7958;DHT22;4024;52.172;5.378;2023-06-19T13:23:36;29.40;96.70
7958;DHT22;4024;52.172;5.378;2023-06-19T13:26:01;29.50;96.90
7958;DHT22;4024;52.172;5.378;2023-06-19T13:28:27;29.50;97.30
7958;DHT22;4024;52.172;5.378;2023-06-19T13:30:53;29.60;97.30
7958;DHT22;4024;52.172;5.378;2023-06-19T13:33:18;29.70;97.90
7958;DHT22;4024;52.172;5.378;2023-06-19T13:35:44;29.70;97.40
7958;DHT22;4024;52.172;5.378;2023-06-19T13:38:09;29.80;96.60
7958;DHT22;4024;52.172;5.378;2023-06-19T13:40:36;29.80;96.20
7958;DHT22;4024;52.172;5.378;2023-06-19T13:43:01;29.80;95.40
7958;DHT22;4024;52.172;5.378;2023-06-19T13:45:29;29.90;96.10
7958;DHT22;4024;52.172;5.378;2023-06-19T13:47:56;29.80;96.30
7958;DHT22;4024;52.172;5.378;2023-06-19T13:50:21;29.80;95.80
7958;DHT22;4024;52.172;5.378;2023-06-19T13:52:49;29.80;96.10
7958;DHT22;4024;52.172;5.378;2023-06-19T13:55:15;29.80;95.80
7958;DHT22;4024;52.172;5.378;2023-06-19T13:57:42;29.80;95.50
7958;DHT22;4024;52.172;5.378;2023-06-19T14:00:09;29.80;95.50
7958;DHT22;4024;52.172;5.378;2023-06-19T14:02:36;29.80;95.10
7958;DHT22;4024;52.172;5.378;2023-06-19T14:05:05;29.70;95.20
7958;DHT22;4024;52.172;5.378;2023-06-19T14:07:32;29.70;95.10
7958;DHT22;4024;52.172;5.378;2023-06-19T14:09:57;29.60;94.40
7958;DHT22;4024;52.172;5.378;2023-06-19T14:12:23;29.70;95.40
7958;DHT22;4024;52.172;5.378;2023-06-19T14:14:49;29.70;94.80
7958;DHT22;4024;52.172;5.378;2023-06-19T14:17:14;29.70;95.00
7958;DHT22;4024;52.172;5.378;2023-06-19T14:19:40;29.70;94.70
7958;DHT22;4024;52.172;5.378;2023-06-19T14:22:05;29.70;94.60
7958;DHT22;4024;52.172;5.378;2023-06-19T14:24:31;29.80;94.00
7958;DHT22;4024;52.172;5.378;2023-06-19T14:26:56;29.80;93.60
7958;DHT22;4024;52.172;5.378;2023-06-19T14:29:22;29.80;93.80
7958;DHT22;4024;52.172;5.378;2023-06-19T14:31:50;29.80;94.00
7958;DHT22;4024;52.172;5.378;2023-06-19T14:34:15;29.80;94.20
7958;DHT22;4024;52.172;5.378;2023-06-19T14:36:41;29.80;94.10
7958;DHT22;4024;52.172;5.378;2023-06-19T14:39:07;29.80;94.40
7958;DHT22;4024;52.172;5.378;2023-06-19T14:41:33;29.80;94.10
7958;DHT22;4024;52.172;5.378;2023-06-19T14:43:58;29.80;94.40
7958;DHT22;4024;52.172;5.378;2023-06-19T14:46:24;29.90;94.40
7958;DHT22;4024;52.172;5.378;2023-06-19T14:48:49;29.90;93.20
7958;DHT22;4024;52.172;5.378;2023-06-19T14:51:15;29.90;93.20
7958;DHT22;4024;52.172;5.378;2023-06-19T14:53:40;29.90;93.10
7958;DHT22;4024;52.172;5.378;2023-06-19T14:56:06;29.90;93.50
7958;DHT22;4024;52.172;5.378;2023-06-19T14:58:32;29.90;92.80
7958;DHT22;4024;52.172;5.378;2023-06-19T15:00:57;29.90;93.10
7958;DHT22;4024;52.172;5.378;2023-06-19T15:03:23;29.90;92.90
7958;DHT22;4024;52.172;5.378;2023-06-19T15:05:49;29.90;92.40
7958;DHT22;4024;52.172;5.378;2023-06-19T15:08:14;29.90;91.90
7958;DHT22;4024;52.172;5.378;2023-06-19T15:10:46;30.00;91.70
7958;DHT22;4024;52.172;5.378;2023-06-19T15:13:12;30.00;91.80
7958;DHT22;4024;52.172;5.378;2023-06-19T15:15:37;30.00;91.60
7958;DHT22;4024;52.172;5.378;2023-06-19T15:18:03;30.10;91.70
7958;DHT22;4024;52.172;5.378;2023-06-19T15:20:29;30.10;91.10
7958;DHT22;4024;52.172;5.378;2023-06-19T15:22:54;30.10;91.30
7958;DHT22;4024;52.172;5.378;2023-06-19T15:25:20;30.10;90.70
7958;DHT22;4024;52.172;5.378;2023-06-19T15:27:45;30.10;90.90
7958;DHT22;4024;52.172;5.378;2023-06-19T15:30:11;30.10;90.70
7958;DHT22;4024;52.172;5.378;2023-06-19T15:32:37;30.10;91.70
7958;DHT22;4024;52.172;5.378;2023-06-19T15:35:03;30.20;92.00
7958;DHT22;4024;52.172;5.378;2023-06-19T15:37:29;30.10;92.10
7958;DHT22;4024;52.172;5.378;2023-06-19T15:39:54;30.20;92.00
7958;DHT22;4024;52.172;5.378;2023-06-19T15:42:21;30.20;91.80
7958;DHT22;4024;52.172;5.378;2023-06-19T15:44:46;30.20;91.70
7958;DHT22;4024;52.172;5.378;2023-06-19T15:47:12;30.20;91.70
7958;DHT22;4024;52.172;5.378;2023-06-19T15:49:38;30.20;91.30
7958;DHT22;4024;52.172;5.378;2023-06-19T15:52:04;30.30;91.20
7958;DHT22;4024;52.172;5.378;2023-06-19T15:54:30;30.30;91.30
7958;DHT22;4024;52.172;5.378;2023-06-19T15:56:56;30.30;91.60
7958;DHT22;4024;52.172;5.378;2023-06-19T15:59:21;30.40;91.60
7958;DHT22;4024;52.172;5.378;2023-06-19T16:01:47;30.40;91.20
7958;DHT22;4024;52.172;5.378;2023-06-19T16:04:12;30.50;90.90
7958;DHT22;4024;52.172;5.378;2023-06-19T16:06:38;30.50;91.00
7958;DHT22;4024;52.172;5.378;2023-06-19T16:09:05;30.60;90.40